createdAt,value
2022-10-24T00:00:15.489Z,100665.75
2022-10-24T00:02:42.296Z,100674.59
2022-10-24T00:05:09.155Z,100668.63
2022-10-24T00:07:35.656Z,100659.81
2022-10-24T00:10:02.141Z,100665.75
2022-10-24T00:12:28.667Z,100666.63
2022-10-24T00:14:55.314Z,100664.75
2022-10-24T00:17:21.918Z,100661.22
2022-10-24T00:19:48.455Z,100663.38
2022-10-24T00:22:14.959Z,100663.53
2022-10-24T00:24:41.547Z,100664.41
2022-10-24T00:27:09.589Z,100663.69
2022-10-24T00:29:36.120Z,100656.56
2022-10-24T00:32:02.609Z,100667.41
2022-10-24T00:34:29.141Z,100669.09
2022-10-24T00:36:55.615Z,100657.56
2022-10-24T00:39:22.255Z,100659.41
2022-10-24T00:41:49.074Z,100655.16
2022-10-24T00:44:27.938Z,100648.06
2022-10-24T00:46:58.035Z,100655.00
2022-10-24T00:50:00.646Z,100649.94
2022-10-24T00:52:31.479Z,100651.78
2022-10-24T00:55:00.237Z,100650.06
2022-10-24T00:57:45.284Z,100649.22
2022-10-24T01:00:21.452Z,100647.50
2022-10-24T01:02:48.628Z,100638.69
2022-10-24T01:05:17.072Z,100643.25
2022-10-24T01:07:55.392Z,100644.56
2022-10-24T01:10:51.074Z,100642.88
2022-10-24T01:13:26.396Z,100639.31
2022-10-24T01:15:56.062Z,100631.50
2022-10-24T01:18:24.788Z,100628.78
2022-10-24T01:21:08.907Z,100626.22
2022-10-24T01:23:57.639Z,100634.53
2022-10-24T01:26:48.980Z,100630.28
2022-10-24T01:29:22.682Z,100635.84
2022-10-24T01:32:16.903Z,100647.97
2022-10-24T01:35:21.411Z,100657.63
2022-10-24T01:37:52.522Z,100647.81
2022-10-24T01:40:32.642Z,100641.72
2022-10-24T01:43:04.638Z,100642.00
2022-10-24T01:45:34.769Z,100637.59
2022-10-24T01:48:06.060Z,100627.78
2022-10-24T01:50:36.789Z,100635.72
2022-10-24T01:53:04.296Z,100628.63
2022-10-24T01:55:32.828Z,100629.47
2022-10-24T01:57:59.678Z,100628.47
2022-10-24T02:00:26.495Z,100628.47
2022-10-24T02:03:00.164Z,100634.03
2022-10-24T02:05:39.810Z,100636.06
2022-10-24T02:08:11.830Z,100616.25
2022-10-24T02:10:45.046Z,100605.59
2022-10-24T02:13:17.250Z,100596.75
2022-10-24T02:15:50.370Z,100605.88
2022-10-24T02:18:17.147Z,100608.44
2022-10-24T02:20:59.343Z,100601.47
2022-10-24T02:23:52.907Z,100604.19
2022-10-24T02:26:46.232Z,100589.97
2022-10-24T02:29:19.363Z,100587.41
2022-10-24T02:31:54.831Z,100601.78
2022-10-24T02:34:23.913Z,100610.91
2022-10-24T02:36:53.605Z,100604.81
2022-10-24T02:39:21.197Z,100601.22
2022-10-24T02:41:49.883Z,100617.31
2022-10-24T02:44:18.856Z,100605.63
2022-10-24T02:46:47.043Z,100593.97
2022-10-24T02:49:13.975Z,100593.84
2022-10-24T02:51:44.415Z,100597.69
2022-10-24T02:54:11.334Z,100600.41
2022-10-24T02:56:43.565Z,100615.91
2022-10-24T03:01:41.522Z,100596.84
2022-10-24T03:04:08.097Z,100590.41
2022-10-24T03:06:34.634Z,100598.38
2022-10-24T03:09:01.164Z,100587.72
2022-10-24T03:11:27.747Z,100590.56
2022-10-24T03:13:54.390Z,100585.16
2022-10-24T03:16:20.946Z,100576.34
2022-10-24T03:18:47.525Z,100571.06
2022-10-24T03:21:14.210Z,100572.94
2022-10-24T03:23:40.727Z,100583.91
2022-10-24T03:26:07.241Z,100572.41
2022-10-24T03:28:33.725Z,100565.13
2022-10-24T03:31:00.248Z,100566.13
2022-10-24T03:33:26.824Z,100573.72
2022-10-24T03:35:54.591Z,100585.41
2022-10-24T03:38:22.676Z,100578.25
2022-10-24T03:40:50.483Z,100590.22
2022-10-24T03:43:17.322Z,100585.69
2022-10-24T03:45:44.238Z,100586.69
2022-10-24T03:48:11.293Z,100583.28
2022-10-24T03:50:37.990Z,100571.91
2022-10-24T03:53:04.695Z,100578.31
2022-10-24T03:55:31.623Z,100576.63
2022-10-24T03:57:58.119Z,100585.75
2022-10-24T04:00:24.753Z,100583.03
2022-10-24T04:02:51.822Z,100589.47
2022-10-24T04:05:18.459Z,100593.00
2022-10-24T04:07:45.377Z,100597.56
2022-10-24T04:10:12.054Z,100599.56
2022-10-24T04:12:38.701Z,100606.94
2022-10-24T04:15:05.851Z,100603.38
2022-10-24T04:17:32.973Z,100597.28
2022-10-24T04:19:59.525Z,100601.00
2022-10-24T04:22:26.026Z,100594.72
2022-10-24T04:24:52.501Z,100595.44
2022-10-24T04:27:19.580Z,100584.63
2022-10-24T04:29:46.172Z,100582.91
2022-10-24T04:32:12.722Z,100592.88
2022-10-24T04:34:39.339Z,100590.31
2022-10-24T04:37:05.943Z,100591.34
2022-10-24T04:39:32.609Z,100582.69
2022-10-24T04:41:59.355Z,100588.09
2022-10-24T04:44:25.894Z,100583.50
2022-10-24T04:46:52.484Z,100575.56
2022-10-24T04:49:19.067Z,100573.00
2022-10-24T04:51:45.826Z,100570.44
2022-10-24T04:54:12.310Z,100566.75
2022-10-24T04:56:38.782Z,100564.22
2022-10-24T04:59:05.319Z,100555.22
2022-10-24T05:01:31.867Z,100558.81
2022-10-24T05:03:58.557Z,100557.06
2022-10-24T05:06:25.079Z,100560.94
2022-10-24T05:08:51.578Z,100560.09
2022-10-24T05:11:18.062Z,100567.19
2022-10-24T05:13:44.588Z,100579.72
2022-10-24T05:16:11.106Z,100576.88
2022-10-24T05:18:37.643Z,100591.25
2022-10-24T05:21:04.340Z,100596.06
2022-10-24T05:23:30.835Z,100589.69
2022-10-24T05:25:57.341Z,100601.34
2022-10-24T05:28:25.226Z,100598.78
2022-10-24T05:30:51.686Z,100603.34
2022-10-24T05:33:18.185Z,100600.50
2022-10-24T05:35:44.803Z,100602.34
2022-10-24T05:38:11.522Z,100610.47
2022-10-24T05:40:38.172Z,100612.28
2022-10-24T05:43:04.646Z,100612.16
2022-10-24T05:45:31.175Z,100618.44
2022-10-24T05:47:57.759Z,100616.56
2022-10-24T05:50:26.503Z,100627.22
2022-10-24T05:52:53.415Z,100631.81
2022-10-24T05:55:19.944Z,100640.88
2022-10-24T05:57:47.140Z,100633.63
2022-10-24T06:00:16.977Z,100642.75
2022-10-24T06:02:44.341Z,100645.47
2022-10-24T06:05:11.655Z,100642.91
2022-10-24T06:07:38.689Z,100641.19
2022-10-24T06:10:06.578Z,100644.47
2022-10-24T06:12:33.319Z,100650.00
2022-10-24T06:15:00.515Z,100641.91
2022-10-24T06:17:27.344Z,100637.22
2022-10-24T06:19:53.900Z,100637.22
2022-10-24T06:22:23.988Z,100635.78
2022-10-24T06:24:50.849Z,100632.09
2022-10-24T06:27:17.456Z,100629.25
2022-10-24T06:29:44.024Z,100638.34
2022-10-24T06:32:10.612Z,100633.78
2022-10-24T06:34:37.558Z,100630.06
2022-10-24T06:37:04.532Z,100631.81
2022-10-24T06:39:31.165Z,100629.66
2022-10-24T06:41:57.777Z,100630.63
2022-10-24T06:44:24.295Z,100623.69
2022-10-24T06:46:50.763Z,100616.41
2022-10-24T06:49:17.426Z,100619.97
2022-10-24T06:51:43.963Z,100618.09
2022-10-24T06:54:10.600Z,100613.56
2022-10-24T06:56:37.126Z,100628.09
2022-10-24T06:59:09.362Z,100622.38
2022-10-24T07:01:36.141Z,100622.09
2022-10-24T07:04:02.946Z,100618.91
2022-10-24T07:06:29.947Z,100619.94
2022-10-24T07:08:58.966Z,100621.78
2022-10-24T07:11:26.583Z,100620.75
2022-10-24T07:13:56.658Z,100623.03
2022-10-24T07:16:26.792Z,100640.41
2022-10-24T07:18:53.873Z,100645.81
2022-10-24T07:21:24.254Z,100649.22
2022-10-24T07:23:52.237Z,100656.63
2022-10-24T07:26:19.836Z,100661.63
2022-10-24T07:28:47.829Z,100668.72
2022-10-24T07:31:17.736Z,100673.44
2022-10-24T07:33:44.466Z,100669.44
2022-10-24T07:36:15.816Z,100668.59
2022-10-24T07:38:42.318Z,100666.44
2022-10-24T07:41:08.836Z,100648.66
2022-10-24T07:43:35.322Z,100650.81
2022-10-24T07:46:09.191Z,100658.25
2022-10-24T07:48:36.405Z,100664.34
2022-10-24T07:51:06.915Z,100662.47
2022-10-24T07:53:33.733Z,100671.75
2022-10-24T07:56:00.659Z,100675.72
2022-10-24T07:58:27.765Z,100676.41
2022-10-24T08:00:54.413Z,100677.25
2022-10-24T08:03:21.151Z,100668.75
2022-10-24T08:05:47.868Z,100671.31
2022-10-24T08:08:41.585Z,100673.28
2022-10-24T08:13:33.514Z,100670.75
2022-10-24T08:16:00.016Z,100667.88
2022-10-24T08:18:30.114Z,100662.19
2022-10-24T08:20:59.847Z,100657.34
2022-10-24T08:23:26.551Z,100651.38
2022-10-24T08:25:53.112Z,100653.06
2022-10-24T08:28:19.726Z,100654.75
2022-10-24T08:30:55.458Z,100654.63
2022-10-24T08:33:22.205Z,100646.50
2022-10-24T08:35:48.877Z,100647.53
2022-10-24T08:38:15.358Z,100644.25
2022-10-24T08:40:41.855Z,100650.19
2022-10-24T08:43:11.792Z,100640.53
2022-10-24T08:45:44.061Z,100639.25
2022-10-24T08:48:18.951Z,100627.41
2022-10-24T08:50:51.707Z,100619.84
2022-10-24T08:53:31.064Z,100617.69
2022-10-24T08:56:00.954Z,100617.41
2022-10-24T08:58:35.807Z,100613.69
2022-10-24T09:01:07.911Z,100612.81
2022-10-24T09:04:02.078Z,100614.22
2022-10-24T09:06:31.747Z,100618.19
2022-10-24T09:09:01.819Z,100620.97
2022-10-24T09:11:56.828Z,100618.81
2022-10-24T09:14:27.466Z,100619.97
2022-10-24T09:17:01.187Z,100613.25
2022-10-24T09:19:30.364Z,100626.44
2022-10-24T09:21:59.360Z,100624.06
2022-10-24T09:24:32.242Z,100625.63
2022-10-24T09:27:00.526Z,100622.78
2022-10-24T09:29:32.589Z,100628.19
2022-10-24T09:32:00.405Z,100630.16
2022-10-24T09:34:27.050Z,100635.97
2022-10-24T09:36:53.547Z,100632.97
2022-10-24T09:39:29.276Z,100641.38
2022-10-24T09:41:56.751Z,100643.09
2022-10-24T09:44:38.423Z,100651.59
2022-10-24T09:47:09.295Z,100656.00
2022-10-24T09:49:41.215Z,100660.44
2022-10-24T09:52:24.428Z,100657.56
2022-10-24T09:55:04.922Z,100658.41
2022-10-24T09:57:39.958Z,100653.53
2022-10-24T10:00:07.769Z,100649.22
2022-10-24T10:02:34.844Z,100649.53
2022-10-24T10:05:04.502Z,100653.25
2022-10-24T10:07:37.541Z,100641.22
2022-10-24T10:10:21.917Z,100646.81
2022-10-24T10:13:07.040Z,100646.09
2022-10-24T10:15:44.230Z,100650.38
2022-10-24T10:18:25.683Z,100636.91
2022-10-24T10:21:02.658Z,100638.09
2022-10-24T10:23:41.422Z,100631.13
2022-10-24T10:26:16.677Z,100633.50
2022-10-24T10:28:48.040Z,100626.25
2022-10-24T10:31:17.290Z,100628.47
2022-10-24T10:34:16.224Z,100626.00
2022-10-24T10:37:04.631Z,100630.41
2022-10-24T10:39:56.050Z,100631.81
2022-10-24T10:42:34.584Z,100631.94
2022-10-24T10:45:30.754Z,100625.84
2022-10-24T10:48:18.202Z,100621.16
2022-10-24T10:50:56.569Z,100607.34
2022-10-24T10:54:11.128Z,100607.38
2022-10-24T10:56:48.590Z,100605.75
2022-10-24T10:59:33.566Z,100599.63
2022-10-24T11:02:16.323Z,100602.41
2022-10-24T11:05:16.614Z,100592.81
2022-10-24T11:08:01.562Z,100604.03
2022-10-24T11:10:35.008Z,100609.09
2022-10-24T11:13:07.501Z,100606.72
2022-10-24T11:15:37.550Z,100596.91
2022-10-24T11:18:39.578Z,100594.72
2022-10-24T11:21:06.262Z,100582.88
2022-10-24T11:23:41.635Z,100593.56
2022-10-24T11:26:13.329Z,100593.94
2022-10-24T11:28:47.830Z,100604.44
2022-10-24T11:31:23.321Z,100595.28
2022-10-24T11:33:56.863Z,100591.41
2022-10-24T11:36:27.019Z,100594.47
2022-10-24T11:39:21.407Z,100590.75
2022-10-24T11:42:00.270Z,100597.03
2022-10-24T11:44:45.335Z,100596.69
2022-10-24T11:47:17.901Z,100587.94
2022-10-24T11:49:50.558Z,100585.56
2022-10-24T11:52:24.850Z,100582.38
2022-10-24T11:55:06.093Z,100586.13
2022-10-24T11:57:34.689Z,100585.78
2022-10-24T12:00:01.390Z,100580.03
2022-10-24T12:02:46.559Z,100571.75
2022-10-24T12:05:42.204Z,100579.25
2022-10-24T12:08:35.634Z,100592.47
2022-10-24T12:11:22.326Z,100578.03
2022-10-24T12:14:30.298Z,100581.59
2022-10-24T12:17:40.521Z,100576.47
2022-10-24T12:20:13.566Z,100571.72
2022-10-24T12:22:44.299Z,100568.31
2022-10-24T12:25:22.538Z,100560.19
2022-10-24T12:28:01.157Z,100555.44
2022-10-24T12:30:30.227Z,100547.16
2022-10-24T12:33:10.834Z,100549.91
2022-10-24T12:35:51.812Z,100556.84
2022-10-24T12:38:27.149Z,100558.72
2022-10-24T12:40:58.591Z,100553.66
2022-10-24T12:43:35.573Z,100563.31
2022-10-24T12:46:22.707Z,100560.91
2022-10-24T12:48:58.232Z,100550.22
2022-10-24T12:51:32.156Z,100542.94
2022-10-24T12:54:14.789Z,100545.16
2022-10-24T12:56:50.485Z,100535.16
2022-10-24T12:59:24.609Z,100524.97
2022-10-24T13:02:13.220Z,100520.38
2022-10-24T13:04:59.957Z,100517.00
2022-10-24T13:07:38.294Z,100519.03
2022-10-24T13:10:31.729Z,100521.75
2022-10-24T13:13:13.426Z,100531.88
2022-10-24T13:16:13.379Z,100532.41
2022-10-24T13:18:39.847Z,100526.47
2022-10-24T13:21:26.584Z,100515.50
2022-10-24T13:23:53.939Z,100509.56
2022-10-24T13:26:41.086Z,100504.97
2022-10-24T13:29:39.382Z,100503.78
2022-10-24T13:32:05.816Z,100508.38
2022-10-24T13:34:52.720Z,100512.13
2022-10-24T13:37:43.328Z,100517.00
2022-10-24T13:40:19.843Z,100521.56
2022-10-24T13:42:54.528Z,100518.53
2022-10-24T13:45:28.646Z,100514.59
2022-10-24T13:48:16.582Z,100502.72
2022-10-24T13:51:04.587Z,100513.22
2022-10-24T13:53:57.090Z,100512.03
2022-10-24T13:56:23.606Z,100517.31
2022-10-24T13:58:50.170Z,100508.66
2022-10-24T14:01:27.546Z,100500.38
2022-10-24T14:03:56.090Z,100505.44
2022-10-24T14:06:28.716Z,100501.72
2022-10-24T14:09:06.550Z,100505.09
2022-10-24T14:11:35.253Z,100504.91
2022-10-24T14:14:06.473Z,100509.47
2022-10-24T14:16:35.857Z,100502.72
2022-10-24T14:19:17.552Z,100493.41
2022-10-24T14:21:46.697Z,100495.41
2022-10-24T14:24:16.538Z,100498.16
2022-10-24T14:26:45.681Z,100500.88
2022-10-24T14:29:32.544Z,100498.47
2022-10-24T14:32:05.162Z,100497.13
2022-10-24T14:34:36.269Z,100501.34
2022-10-24T14:37:11.829Z,100495.25
2022-10-24T14:39:39.441Z,100494.22
2022-10-24T14:42:14.950Z,100495.09
2022-10-24T14:44:44.032Z,100492.75
2022-10-24T14:47:36.346Z,100498.00
2022-10-24T14:50:03.013Z,100487.63
2022-10-24T14:52:39.078Z,100493.25
2022-10-24T14:55:23.343Z,100494.06
2022-10-24T14:57:51.927Z,100485.78
2022-10-24T15:00:24.843Z,100494.91
2022-10-24T15:02:54.108Z,100495.75
2022-10-24T15:05:20.623Z,100498.47
2022-10-24T15:08:09.258Z,100498.47
2022-10-24T15:10:35.481Z,100498.78
2022-10-24T15:13:13.279Z,100497.75
2022-10-24T15:15:55.207Z,100501.34
2022-10-24T15:18:28.024Z,100493.84
2022-10-24T15:21:13.709Z,100490.13
2022-10-24T15:23:56.203Z,100491.97
2022-10-24T15:26:40.619Z,100488.59
2022-10-24T15:29:13.190Z,100487.44
2022-10-24T15:31:42.882Z,100473.72
2022-10-24T15:34:14.959Z,100471.84
2022-10-24T15:36:43.220Z,100480.31
2022-10-24T15:39:09.738Z,100483.53
2022-10-24T15:41:36.664Z,100481.13
2022-10-24T15:44:13.714Z,100481.47
2022-10-24T15:46:40.205Z,100478.59
2022-10-24T15:49:06.691Z,100477.38
2022-10-24T15:51:33.477Z,100476.00
2022-10-24T15:54:01.135Z,100479.56
2022-10-24T15:56:27.662Z,100477.91
2022-10-24T15:58:55.871Z,100478.06
2022-10-24T16:01:37.256Z,100472.81
2022-10-24T16:04:09.198Z,100472.97
2022-10-24T16:06:36.254Z,100468.72
2022-10-24T16:09:03.911Z,100470.06
2022-10-24T16:11:32.092Z,100477.69
2022-10-24T16:13:59.642Z,100484.44
2022-10-24T16:16:26.121Z,100486.25
2022-10-24T16:18:52.657Z,100489.53
2022-10-24T16:21:21.238Z,100479.84
2022-10-24T16:23:48.852Z,100477.50
2022-10-24T16:26:16.098Z,100474.25
2022-10-24T16:28:42.664Z,100479.84
2022-10-24T16:31:09.432Z,100479.16
2022-10-24T16:33:36.008Z,100487.59
2022-10-24T16:36:02.502Z,100496.25
2022-10-24T16:38:29.308Z,100500.44
2022-10-24T16:40:56.331Z,100491.97
2022-10-24T16:43:22.842Z,100481.66
2022-10-24T16:46:02.835Z,100474.69
2022-10-24T16:48:30.239Z,100473.97
2022-10-24T16:50:57.455Z,100475.16
2022-10-24T16:53:24.337Z,100476.00
2022-10-24T16:55:54.191Z,100473.78
2022-10-24T16:58:21.321Z,100478.69
2022-10-24T17:00:49.065Z,100482.94
2022-10-24T17:03:15.680Z,100481.41
2022-10-24T17:08:17.520Z,100478.31
2022-10-24T17:10:44.123Z,100473.06
2022-10-24T17:13:10.635Z,100474.44
2022-10-24T17:15:37.178Z,100474.44
2022-10-24T17:18:03.867Z,100481.34
2022-10-24T17:20:30.507Z,100486.06
2022-10-24T17:22:57.409Z,100482.84
2022-10-24T17:25:26.386Z,100476.03
2022-10-24T17:27:54.839Z,100465.16
2022-10-24T17:30:28.278Z,100462.28
2022-10-24T17:32:54.944Z,100472.06
2022-10-24T17:35:24.699Z,100487.09
2022-10-24T17:37:51.171Z,100478.59
2022-10-24T17:40:20.813Z,100481.22
2022-10-24T17:42:48.429Z,100469.03
2022-10-24T17:45:20.848Z,100469.88
2022-10-24T17:47:47.684Z,100467.25
2022-10-24T17:50:14.970Z,100473.78
2022-10-24T17:52:42.423Z,100472.63
2022-10-24T17:55:51.585Z,100475.41
2022-10-24T17:58:18.322Z,100463.28
2022-10-24T18:00:45.153Z,100463.19
2022-10-24T18:03:11.916Z,100481.53
2022-10-24T18:05:38.922Z,100484.00
2022-10-24T18:08:07.559Z,100482.84
2022-10-24T18:10:36.067Z,100484.88
2022-10-24T18:13:02.752Z,100486.25
2022-10-24T18:15:29.290Z,100481.84
2022-10-24T18:17:55.771Z,100479.06
2022-10-24T18:20:22.294Z,100476.50
2022-10-24T18:22:49.359Z,100471.25
2022-10-24T18:25:20.300Z,100467.00
2022-10-24T18:27:49.901Z,100461.38
2022-10-24T18:30:16.722Z,100465.09
2022-10-24T18:32:44.464Z,100461.56
2022-10-24T18:35:11.956Z,100464.28
2022-10-24T18:37:39.038Z,100460.81
2022-10-24T18:40:07.894Z,100467.38
2022-10-24T18:42:40.994Z,100466.53
2022-10-24T18:45:11.985Z,100469.69
2022-10-24T18:47:38.939Z,100475.06
2022-10-24T18:50:05.915Z,100464.81
2022-10-24T18:52:37.344Z,100462.28
2022-10-24T18:55:25.550Z,100457.16
2022-10-24T18:57:52.245Z,100440.97
2022-10-24T19:00:22.018Z,100420.84
2022-10-24T19:03:04.699Z,100422.38
2022-10-24T19:05:41.134Z,100417.69
2022-10-24T19:08:34.142Z,100430.66
2022-10-24T19:11:00.908Z,100440.66
2022-10-24T19:13:27.910Z,100439.81
2022-10-24T19:16:00.439Z,100436.53
2022-10-24T19:18:32.829Z,100439.50
2022-10-24T19:21:00.407Z,100444.63
2022-10-24T19:23:26.911Z,100436.94
2022-10-24T19:25:53.503Z,100434.84
2022-10-24T19:28:20.576Z,100427.59
2022-10-24T19:30:48.232Z,100423.47
2022-10-24T19:33:16.474Z,100433.59
2022-10-24T19:35:47.192Z,100433.72
2022-10-24T19:38:15.148Z,100427.09
2022-10-24T19:40:46.396Z,100435.44
2022-10-24T19:43:13.614Z,100435.19
2022-10-24T19:45:49.927Z,100431.91
2022-10-24T19:48:17.548Z,100417.72
2022-10-24T19:50:44.301Z,100416.84
2022-10-24T19:53:13.228Z,100425.91
2022-10-24T19:55:40.602Z,100425.81
2022-10-24T19:58:12.515Z,100426.66
2022-10-24T20:00:39.715Z,100417.44
2022-10-24T20:03:06.567Z,100424.94
2022-10-24T20:05:33.300Z,100407.34
2022-10-24T20:07:59.945Z,100385.47
2022-10-24T20:10:26.464Z,100386.19
2022-10-24T20:12:53.027Z,100389.31
2022-10-24T20:15:19.608Z,100392.69
2022-10-24T20:17:46.677Z,100395.53
2022-10-24T20:20:13.455Z,100415.28
2022-10-24T20:22:40.347Z,100412.88
2022-10-24T20:25:08.182Z,100409.34
2022-10-24T20:27:38.735Z,100401.25
2022-10-24T20:30:05.800Z,100401.50
2022-10-24T20:32:32.291Z,100397.97
2022-10-24T20:34:58.799Z,100400.78
2022-10-24T20:37:25.304Z,100398.69
2022-10-24T20:39:51.846Z,100394.56
2022-10-24T20:42:20.228Z,100392.56
2022-10-24T20:44:46.731Z,100406.47
2022-10-24T20:47:13.231Z,100402.97
2022-10-24T20:49:39.763Z,100400.28
2022-10-24T20:52:06.313Z,100407.38
2022-10-24T20:54:33.952Z,100410.34
2022-10-24T20:57:00.438Z,100406.78
2022-10-24T20:59:26.967Z,100406.06
2022-10-24T21:01:53.556Z,100406.81
2022-10-24T21:04:20.901Z,100419.56
2022-10-24T21:06:47.774Z,100414.72
2022-10-24T21:09:15.155Z,100419.84
2022-10-24T21:11:41.793Z,100413.59
2022-10-24T21:14:11.859Z,100412.31
2022-10-24T21:16:38.548Z,100419.81
2022-10-24T21:19:05.281Z,100413.88
2022-10-24T21:21:31.951Z,100413.72
2022-10-24T21:24:04.328Z,100420.69
2022-10-24T21:26:32.589Z,100418.69
2022-10-24T21:29:08.686Z,100413.41
2022-10-24T21:31:41.345Z,100415.69
2022-10-24T21:34:08.121Z,100411.31
2022-10-24T21:36:34.674Z,100419.53
2022-10-24T21:39:01.335Z,100424.81
2022-10-24T21:41:28.402Z,100417.69
2022-10-24T21:43:55.228Z,100429.34
2022-10-24T21:46:23.868Z,100424.81
2022-10-24T21:48:51.789Z,100432.03
2022-10-24T21:51:21.823Z,100433.31
2022-10-24T21:53:56.908Z,100434.19
2022-10-24T21:56:25.998Z,100435.59
2022-10-24T21:58:59.833Z,100450.09
2022-10-24T22:01:32.718Z,100444.66
2022-10-24T22:04:00.434Z,100449.63
2022-10-24T22:06:28.293Z,100436.38
2022-10-24T22:08:56.099Z,100443.22
2022-10-24T22:11:25.429Z,100440.50
2022-10-24T22:13:52.830Z,100441.06
2022-10-24T22:16:22.712Z,100441.91
2022-10-24T22:18:50.070Z,100444.75
2022-10-24T22:21:26.867Z,100445.03
2022-10-24T22:23:56.591Z,100443.56
2022-10-24T22:26:23.827Z,100433.31
2022-10-24T22:28:50.520Z,100434.19
2022-10-24T22:31:17.740Z,100430.88
2022-10-24T22:33:44.874Z,100428.06
2022-10-24T22:36:29.957Z,100428.06
2022-10-24T22:38:57.118Z,100434.13
2022-10-24T22:41:23.708Z,100433.00
2022-10-24T22:43:50.611Z,100423.88
2022-10-24T22:46:52.514Z,100425.44
2022-10-24T22:49:44.138Z,100412.78
2022-10-24T22:52:11.420Z,100416.78
2022-10-24T22:54:38.680Z,100430.97
2022-10-24T22:57:06.119Z,100432.84
2022-10-24T22:59:33.687Z,100423.59
2022-10-24T23:02:00.315Z,100433.09
2022-10-24T23:04:32.621Z,100423.97
2022-10-24T23:07:26.613Z,100432.66
2022-10-24T23:09:54.233Z,100426.53
2022-10-24T23:12:22.364Z,100420.13
2022-10-24T23:14:50.231Z,100400.78
2022-10-24T23:17:28.853Z,100395.19
2022-10-24T23:19:56.901Z,100392.50
2022-10-24T23:22:28.829Z,100400.31
2022-10-24T23:24:57.982Z,100410.97
2022-10-24T23:27:39.257Z,100404.44
2022-10-24T23:30:18.415Z,100397.31
2022-10-24T23:32:46.449Z,100388.22
2022-10-24T23:35:15.201Z,100379.25
2022-10-24T23:37:44.087Z,100374.53
2022-10-24T23:40:19.595Z,100361.03
2022-10-24T23:42:48.110Z,100367.44
2022-10-24T23:45:17.604Z,100373.69
2022-10-24T23:48:03.179Z,100383.81
2022-10-24T23:50:45.968Z,100368.28
2022-10-24T23:53:22.902Z,100370.00
2022-10-24T23:55:49.821Z,100367.16
2022-10-24T23:58:16.403Z,100374.53
